createdAt,value
2017-11-09T00:01:34.501Z,74.30
2017-11-09T00:04:08.337Z,74.50
2017-11-09T00:06:36.497Z,74.60
2017-11-09T00:09:05.414Z,74.90
2017-11-09T00:11:33.692Z,74.90
2017-11-09T00:14:01.868Z,75.20
2017-11-09T00:16:33.724Z,75.40
2017-11-09T00:19:01.896Z,75.40
2017-11-09T00:21:30.013Z,75.60
2017-11-09T00:23:58.165Z,75.70
2017-11-09T00:26:26.282Z,75.50
2017-11-09T00:28:55.311Z,75.50
2017-11-09T00:31:23.428Z,75.50
2017-11-09T00:33:51.651Z,75.30
2017-11-09T00:36:19.768Z,75.40
2017-11-09T00:38:47.906Z,75.40
2017-11-09T00:41:16.068Z,75.30
2017-11-09T00:43:44.161Z,75.70
2017-11-09T00:46:12.311Z,75.70
2017-11-09T00:48:41.304Z,75.80
2017-11-09T00:51:09.407Z,75.80
2017-11-09T00:53:37.568Z,75.90
2017-11-09T00:56:05.717Z,76.10
2017-11-09T00:58:33.821Z,76.30
2017-11-09T01:01:01.956Z,76.50
2017-11-09T01:03:30.080Z,76.70
2017-11-09T01:05:58.228Z,76.70
2017-11-09T01:08:26.344Z,77.00
2017-11-09T01:10:55.270Z,77.40
2017-11-09T01:13:23.388Z,76.80
2017-11-09T01:15:51.546Z,76.70
2017-11-09T01:18:19.692Z,76.60
2017-11-09T01:20:47.859Z,76.60
2017-11-09T01:23:16.032Z,76.50
2017-11-09T01:25:44.142Z,76.30
2017-11-09T01:28:12.280Z,76.50
2017-11-09T01:30:40.428Z,76.70
2017-11-09T01:33:09.439Z,76.90
2017-11-09T01:35:38.332Z,77.00
2017-11-09T01:38:06.462Z,77.10
2017-11-09T01:40:34.679Z,77.10
2017-11-09T01:43:02.857Z,77.10
2017-11-09T01:45:30.960Z,76.90
2017-11-09T01:47:59.092Z,77.10
2017-11-09T01:50:27.286Z,77.10
2017-11-09T01:52:55.441Z,77.10
2017-11-09T01:55:24.341Z,77.00
2017-11-09T01:57:52.608Z,77.00
2017-11-09T02:00:20.717Z,77.20
2017-11-09T02:02:48.963Z,77.10
2017-11-09T02:05:17.073Z,76.90
2017-11-09T02:07:45.225Z,77.90
2017-11-09T02:10:13.494Z,77.20
2017-11-09T02:12:41.650Z,77.10
2017-11-09T02:15:09.747Z,76.90
2017-11-09T02:17:37.896Z,76.90
2017-11-09T02:20:06.004Z,77.10
2017-11-09T02:22:34.238Z,77.40
2017-11-09T02:25:02.348Z,77.40
2017-11-09T02:27:30.487Z,77.80
2017-11-09T02:29:58.622Z,77.90
2017-11-09T02:32:27.508Z,77.80
2017-11-09T02:34:56.440Z,77.70
2017-11-09T02:37:24.556Z,77.60
2017-11-09T02:39:52.703Z,77.50
2017-11-09T02:42:20.856Z,77.50
2017-11-09T02:44:48.960Z,77.40
2017-11-09T02:47:17.081Z,77.50
2017-11-09T02:49:45.219Z,77.50
2017-11-09T02:52:13.437Z,77.40
2017-11-09T02:54:41.625Z,77.40
2017-11-09T02:57:14.688Z,77.90
2017-11-09T02:59:43.592Z,77.00
2017-11-09T03:02:11.700Z,77.00
2017-11-09T03:04:39.825Z,77.10
2017-11-09T03:07:07.982Z,77.20
2017-11-09T03:09:36.892Z,77.00
2017-11-09T03:12:05.074Z,77.00
2017-11-09T03:14:33.185Z,77.00
2017-11-09T03:17:01.330Z,77.00
2017-11-09T03:19:29.490Z,77.00
2017-11-09T03:21:57.763Z,77.00
2017-11-09T03:24:25.887Z,77.00
2017-11-09T03:26:54.821Z,77.00
2017-11-09T03:29:23.692Z,76.90
2017-11-09T03:31:52.605Z,76.80
2017-11-09T03:34:20.778Z,76.90
2017-11-09T03:36:48.899Z,76.90
2017-11-09T03:39:17.121Z,76.70
2017-11-09T03:41:45.298Z,76.90
2017-11-09T03:44:13.489Z,76.90
2017-11-09T03:46:41.589Z,76.80
2017-11-09T03:49:09.816Z,76.60
2017-11-09T03:51:37.928Z,76.70
2017-11-09T03:54:06.158Z,77.20
2017-11-09T03:56:34.331Z,77.20
2017-11-09T03:59:03.219Z,77.00
2017-11-09T04:01:32.112Z,77.10
2017-11-09T04:04:00.239Z,77.20
2017-11-09T04:06:28.358Z,77.30
2017-11-09T04:08:56.632Z,77.60
2017-11-09T04:11:24.737Z,77.60
2017-11-09T04:13:52.977Z,77.80
2017-11-09T04:16:21.844Z,77.50
2017-11-09T04:18:50.757Z,78.20
2017-11-09T04:21:18.927Z,77.60
2017-11-09T04:23:47.102Z,77.50
2017-11-09T04:26:15.281Z,77.70
2017-11-09T04:28:43.391Z,77.70
2017-11-09T04:31:11.506Z,77.70
2017-11-09T04:33:39.671Z,77.80
2017-11-09T04:36:07.791Z,77.80
2017-11-09T04:38:36.047Z,77.80
2017-11-09T04:41:04.210Z,77.70
2017-11-09T04:43:32.300Z,77.60
2017-11-09T04:46:00.454Z,77.50
2017-11-09T04:48:28.627Z,77.60
2017-11-09T04:50:56.801Z,77.60
2017-11-09T04:53:24.976Z,77.40
2017-11-09T04:55:53.147Z,77.50
2017-11-09T04:58:21.319Z,77.60
2017-11-09T05:00:49.435Z,77.70
2017-11-09T05:03:17.574Z,77.80
2017-11-09T05:05:45.700Z,77.70
2017-11-09T05:08:14.627Z,77.90
2017-11-09T05:10:42.801Z,77.90
2017-11-09T05:13:10.933Z,77.90
2017-11-09T05:15:39.144Z,78.00
2017-11-09T05:18:07.325Z,78.00
2017-11-09T05:20:35.436Z,77.90
2017-11-09T05:23:03.581Z,77.80
2017-11-09T05:25:32.495Z,77.90
2017-11-09T05:28:00.642Z,77.80
2017-11-09T05:30:28.798Z,77.90
2017-11-09T05:32:56.921Z,78.00
2017-11-09T05:35:25.051Z,78.00
2017-11-09T05:37:53.213Z,77.90
2017-11-09T05:40:21.389Z,77.90
2017-11-09T05:42:49.493Z,77.70
2017-11-09T05:45:17.627Z,77.40
2017-11-09T05:47:45.751Z,77.40
2017-11-09T05:50:13.875Z,77.30
2017-11-09T05:52:42.014Z,77.30
2017-11-09T05:55:11.077Z,77.30
2017-11-09T05:57:40.034Z,77.20
2017-11-09T06:00:08.923Z,77.30
2017-11-09T06:02:37.056Z,77.30
2017-11-09T06:05:05.981Z,77.70
2017-11-09T06:07:34.116Z,77.70
2017-11-09T06:10:02.231Z,77.40
2017-11-09T06:12:30.398Z,77.40
2017-11-09T06:14:59.265Z,77.70
2017-11-09T06:17:28.285Z,77.90
2017-11-09T06:19:56.408Z,77.80
2017-11-09T06:22:24.525Z,78.00
2017-11-09T06:24:52.658Z,78.00
2017-11-09T06:27:20.875Z,78.00
2017-11-09T06:29:49.046Z,78.10
2017-11-09T06:32:17.149Z,78.30
2017-11-09T06:34:45.271Z,78.20
2017-11-09T06:37:13.410Z,78.10
2017-11-09T06:39:41.547Z,78.10
2017-11-09T06:42:09.678Z,78.10
2017-11-09T06:44:38.611Z,78.10
2017-11-09T06:47:06.768Z,78.00
2017-11-09T06:49:34.941Z,78.00
2017-11-09T06:52:03.117Z,77.90
2017-11-09T06:54:31.239Z,77.70
2017-11-09T06:56:59.361Z,77.70
2017-11-09T06:59:28.349Z,77.40
2017-11-09T07:01:56.524Z,77.40
2017-11-09T07:04:24.697Z,77.20
2017-11-09T07:06:52.869Z,77.10
2017-11-09T07:09:21.018Z,77.40
2017-11-09T07:11:49.930Z,77.60
2017-11-09T07:14:18.105Z,77.60
2017-11-09T07:16:46.278Z,77.40
2017-11-09T07:19:14.397Z,77.20
2017-11-09T07:21:42.552Z,77.40
2017-11-09T07:24:10.652Z,77.50
2017-11-09T07:26:39.568Z,76.90
2017-11-09T07:29:07.762Z,76.90
2017-11-09T07:31:36.034Z,76.90
2017-11-09T07:34:04.140Z,77.00
2017-11-09T07:36:32.271Z,77.20
2017-11-09T07:39:00.451Z,77.00
2017-11-09T07:41:28.724Z,77.20
2017-11-09T07:43:56.898Z,77.10
2017-11-09T07:46:25.018Z,76.90
2017-11-09T07:48:53.148Z,76.90
2017-11-09T07:51:21.275Z,76.80
2017-11-09T07:53:50.175Z,77.20
2017-11-09T07:56:19.096Z,76.90
2017-11-09T07:58:47.211Z,76.90
2017-11-09T08:01:15.345Z,76.80
2017-11-09T08:03:43.465Z,76.40
2017-11-09T08:06:11.686Z,75.80
2017-11-09T08:08:39.858Z,76.10
2017-11-09T08:11:08.027Z,75.90
2017-11-09T08:13:36.142Z,75.90
2017-11-09T08:16:04.288Z,75.70
2017-11-09T08:18:32.448Z,75.80
2017-11-09T08:21:00.620Z,75.70
2017-11-09T08:23:28.797Z,75.20
2017-11-09T08:25:59.982Z,74.60
2017-11-09T08:28:30.310Z,74.80
2017-11-09T08:31:00.791Z,75.00
2017-11-09T08:33:32.607Z,74.60
2017-11-09T08:36:01.641Z,74.20
2017-11-09T08:38:29.803Z,74.20
2017-11-09T08:40:57.949Z,73.60
2017-11-09T08:43:26.852Z,73.20
2017-11-09T08:45:55.730Z,72.80
2017-11-09T08:48:24.634Z,72.30
2017-11-09T08:50:52.904Z,72.30
2017-11-09T08:53:21.824Z,72.50
2017-11-09T08:55:50.101Z,72.30
2017-11-09T08:58:18.283Z,72.20
2017-11-09T09:00:46.415Z,72.60
2017-11-09T09:03:15.337Z,71.80
2017-11-09T09:05:43.450Z,71.80
2017-11-09T09:08:11.589Z,71.80
2017-11-09T09:10:39.760Z,72.00
2017-11-09T09:13:07.938Z,72.30
2017-11-09T09:15:36.054Z,72.30
2017-11-09T09:18:04.183Z,72.30
2017-11-09T09:20:51.094Z,71.90
2017-11-09T09:23:19.240Z,70.70
2017-11-09T09:28:53.184Z,69.40
2017-11-09T09:31:21.338Z,69.10
2017-11-09T09:36:59.608Z,68.40
2017-11-09T09:39:28.885Z,68.30
2017-11-09T09:41:56.996Z,68.00
2017-11-09T09:44:25.142Z,68.30
2017-11-09T09:46:53.304Z,68.00
2017-11-09T09:49:21.481Z,64.90
2017-11-09T09:51:49.587Z,65.70
2017-11-09T09:54:17.927Z,65.20
2017-11-09T09:56:46.101Z,64.60
2017-11-09T09:59:14.227Z,66.10
2017-11-09T10:01:43.128Z,68.50
2017-11-09T10:04:12.034Z,70.00
2017-11-09T10:06:40.179Z,69.40
2017-11-09T10:09:08.396Z,70.40
2017-11-09T10:11:36.536Z,69.90
2017-11-09T10:14:05.431Z,70.00
2017-11-09T10:16:34.349Z,70.20
2017-11-09T10:19:02.521Z,70.20
2017-11-09T10:21:30.622Z,70.60
2017-11-09T10:23:58.870Z,70.70
2017-11-09T10:26:26.999Z,70.90
2017-11-09T10:28:55.209Z,71.10
2017-11-09T10:31:24.108Z,69.80
2017-11-09T10:33:52.209Z,69.70
2017-11-09T10:36:20.346Z,69.00
2017-11-09T10:38:48.456Z,69.30
2017-11-09T10:41:16.687Z,69.50
2017-11-09T10:43:45.551Z,69.10
2017-11-09T10:46:14.457Z,69.30
2017-11-09T10:48:42.644Z,69.30
2017-11-09T10:51:10.816Z,69.10
2017-11-09T10:53:38.949Z,69.20
2017-11-09T10:56:07.165Z,69.40
2017-11-09T10:58:38.191Z,69.00
2017-11-09T11:01:06.328Z,69.40
2017-11-09T11:03:34.431Z,69.60
2017-11-09T11:06:02.600Z,69.10
2017-11-09T11:08:31.489Z,69.20
2017-11-09T11:11:02.413Z,69.30
2017-11-09T11:13:30.620Z,69.20
2017-11-09T11:15:58.792Z,69.20
2017-11-09T11:18:26.898Z,69.60
2017-11-09T11:20:55.034Z,68.70
2017-11-09T11:23:23.157Z,68.80
2017-11-09T11:25:51.282Z,67.70
2017-11-09T11:28:19.416Z,68.20
2017-11-09T11:30:48.330Z,68.40
2017-11-09T11:33:16.466Z,68.30
2017-11-09T11:35:44.689Z,68.40
2017-11-09T11:38:12.824Z,68.50
2017-11-09T11:40:41.743Z,68.00
2017-11-09T11:43:10.054Z,67.90
2017-11-09T11:45:38.198Z,67.70
2017-11-09T11:48:06.305Z,67.70
2017-11-09T11:50:34.543Z,67.70
2017-11-09T11:53:02.638Z,67.60
2017-11-09T11:55:30.789Z,67.40
2017-11-09T11:57:58.961Z,67.90
2017-11-09T12:00:27.850Z,68.10
2017-11-09T12:02:58.522Z,68.10
2017-11-09T12:05:26.654Z,67.30
2017-11-09T12:07:54.835Z,67.40
2017-11-09T12:10:22.999Z,66.50
2017-11-09T12:12:51.139Z,67.10
2017-11-09T12:15:20.064Z,66.70
2017-11-09T12:17:48.180Z,66.70
2017-11-09T12:20:16.957Z,67.30
2017-11-09T12:22:45.110Z,67.20
2017-11-09T12:25:13.269Z,67.70
2017-11-09T12:27:41.442Z,68.00
2017-11-09T12:30:09.613Z,67.40
2017-11-09T12:32:37.731Z,67.40
2017-11-09T12:35:05.851Z,66.80
2017-11-09T12:37:34.028Z,66.80
2017-11-09T12:40:03.682Z,67.20
2017-11-09T12:42:31.896Z,67.10
2017-11-09T12:45:00.789Z,67.20
2017-11-09T12:47:28.977Z,67.20
2017-11-09T12:49:57.101Z,67.20
2017-11-09T12:52:29.506Z,67.30
2017-11-09T12:54:57.886Z,67.80
2017-11-09T12:57:26.013Z,68.30
2017-11-09T12:59:54.142Z,67.90
2017-11-09T13:02:22.270Z,68.60
2017-11-09T13:04:51.215Z,68.40
2017-11-09T13:07:19.381Z,68.30
2017-11-09T13:09:47.553Z,67.30
2017-11-09T13:12:15.675Z,67.30
2017-11-09T13:14:43.813Z,67.10
2017-11-09T13:17:11.943Z,67.30
2017-11-09T13:19:40.842Z,67.70
2017-11-09T13:22:09.056Z,67.70
2017-11-09T13:24:37.217Z,68.00
2017-11-09T13:27:05.432Z,67.10
2017-11-09T13:29:33.559Z,67.10
2017-11-09T13:32:01.698Z,66.80
2017-11-09T13:34:31.535Z,66.40
2017-11-09T13:36:59.709Z,66.30
2017-11-09T13:39:28.367Z,66.40
2017-11-09T13:41:57.390Z,66.80
2017-11-09T13:44:25.761Z,66.80
2017-11-09T13:46:54.636Z,67.20
2017-11-09T13:49:22.787Z,67.10
2017-11-09T13:51:51.685Z,66.70
2017-11-09T13:54:20.620Z,66.70
2017-11-09T13:56:48.781Z,66.70
2017-11-09T13:59:18.296Z,66.60
2017-11-09T14:01:46.681Z,66.50
2017-11-09T14:04:14.804Z,66.40
2017-11-09T14:06:43.698Z,65.00
2017-11-09T14:09:12.614Z,65.70
2017-11-09T14:11:40.890Z,65.70
2017-11-09T14:14:09.065Z,66.20
2017-11-09T14:16:37.233Z,67.10
2017-11-09T14:19:05.351Z,67.50
2017-11-09T14:21:33.534Z,68.50
2017-11-09T14:24:02.280Z,68.80
2017-11-09T14:26:30.421Z,69.20
2017-11-09T14:28:59.326Z,69.60
2017-11-09T14:31:28.323Z,69.90
2017-11-09T14:33:56.594Z,69.90
2017-11-09T14:36:24.715Z,70.20
2017-11-09T14:38:52.938Z,70.20
2017-11-09T14:41:21.817Z,70.50
2017-11-09T14:43:50.713Z,70.80
2017-11-09T14:46:18.893Z,70.70
2017-11-09T14:48:47.770Z,71.20
2017-11-09T14:51:16.654Z,71.30
2017-11-09T14:53:44.838Z,71.30
2017-11-09T14:56:13.020Z,71.50
2017-11-09T14:58:41.296Z,71.40
2017-11-09T15:01:09.451Z,71.50
2017-11-09T15:03:37.595Z,71.50
2017-11-09T15:06:06.530Z,71.50
2017-11-09T15:08:34.652Z,71.50
2017-11-09T15:11:02.807Z,71.60
2017-11-09T15:13:30.951Z,71.40
2017-11-09T15:15:59.122Z,71.60
2017-11-09T15:18:27.255Z,71.80
2017-11-09T15:20:55.397Z,71.70
2017-11-09T15:23:23.533Z,71.70
2017-11-09T15:25:51.672Z,71.60
2017-11-09T15:28:20.619Z,71.60
2017-11-09T15:30:48.729Z,71.60
2017-11-09T15:33:17.674Z,71.80
2017-11-09T15:35:51.446Z,71.70
2017-11-09T15:38:20.361Z,71.80
2017-11-09T15:40:48.591Z,71.80
2017-11-09T15:43:16.761Z,71.80
2017-11-09T15:45:44.882Z,71.90
2017-11-09T15:48:13.149Z,71.90
2017-11-09T15:50:41.274Z,71.80
2017-11-09T15:53:10.239Z,72.30
2017-11-09T15:55:38.411Z,71.80
2017-11-09T15:58:06.560Z,71.70
2017-11-09T16:00:34.701Z,71.80
2017-11-09T16:03:03.624Z,71.80
2017-11-09T16:05:31.744Z,71.80
2017-11-09T16:08:05.907Z,71.70
2017-11-09T16:10:34.026Z,71.90
2017-11-09T16:13:02.255Z,71.90
2017-11-09T16:15:30.360Z,72.20
2017-11-09T16:17:58.497Z,72.20
2017-11-09T16:20:26.618Z,72.20
2017-11-09T16:22:54.821Z,72.30
2017-11-09T16:25:23.733Z,72.10
2017-11-09T16:27:51.887Z,71.60
2017-11-09T16:30:20.052Z,71.60
2017-11-09T16:32:48.967Z,71.50
2017-11-09T16:35:17.830Z,71.40
2017-11-09T16:37:46.733Z,71.40
2017-11-09T16:40:14.922Z,71.40
2017-11-09T16:42:43.072Z,71.20
2017-11-09T16:45:11.938Z,71.00
2017-11-09T16:47:40.083Z,71.00
2017-11-09T16:50:08.993Z,71.00
2017-11-09T16:52:40.881Z,71.00
2017-11-09T16:55:09.022Z,71.20
2017-11-09T16:57:37.156Z,71.00
2017-11-09T17:00:05.336Z,71.00
2017-11-09T17:02:33.605Z,70.50
2017-11-09T17:05:01.708Z,70.30
2017-11-09T17:07:30.872Z,70.10
2017-11-09T17:09:58.985Z,70.20
2017-11-09T17:12:27.218Z,70.80
2017-11-09T17:15:01.328Z,70.00
2017-11-09T17:17:29.613Z,69.90
2017-11-09T17:19:57.821Z,69.90
2017-11-09T17:25:36.424Z,70.10
2017-11-09T17:28:04.862Z,70.20
2017-11-09T17:30:33.117Z,70.50
2017-11-09T17:33:01.347Z,70.80
2017-11-09T17:35:29.462Z,70.80
2017-11-09T17:37:57.631Z,70.80
2017-11-09T17:40:26.523Z,71.00
2017-11-09T17:42:54.794Z,71.00
2017-11-09T17:45:23.961Z,71.10
2017-11-09T17:47:52.169Z,71.10
2017-11-09T17:50:20.336Z,71.30
2017-11-09T17:52:50.252Z,71.40
2017-11-09T17:55:18.483Z,71.50
2017-11-09T17:57:48.370Z,71.50
2017-11-09T18:00:18.028Z,71.90
2017-11-09T18:02:46.937Z,71.80
2017-11-09T18:05:15.250Z,71.80
2017-11-09T18:07:43.517Z,71.80
2017-11-09T18:10:11.661Z,71.90
2017-11-09T18:12:39.780Z,71.80
2017-11-09T18:15:08.015Z,70.80
2017-11-09T18:17:36.498Z,70.70
2017-11-09T18:20:04.678Z,70.10
2017-11-09T18:22:36.669Z,69.80
2017-11-09T18:25:04.928Z,70.30
2017-11-09T18:27:33.115Z,69.50
2017-11-09T18:30:01.261Z,69.70
2017-11-09T18:32:29.834Z,69.90
2017-11-09T18:34:58.012Z,70.00
2017-11-09T18:37:26.331Z,70.10
2017-11-09T18:39:54.464Z,70.30
2017-11-09T18:42:22.725Z,70.60
2017-11-09T18:44:50.853Z,70.40
2017-11-09T18:47:19.788Z,71.10
2017-11-09T18:49:48.063Z,70.40
2017-11-09T18:52:16.372Z,70.20
2017-11-09T18:54:44.521Z,70.40
2017-11-09T18:57:12.686Z,70.20
2017-11-09T18:59:44.749Z,70.00
2017-11-09T19:02:12.886Z,70.20
2017-11-09T19:04:41.098Z,70.50
2017-11-09T19:07:09.397Z,70.80
2017-11-09T19:09:37.616Z,70.90
2017-11-09T19:12:07.004Z,70.90
2017-11-09T19:14:36.856Z,71.20
2017-11-09T19:17:05.019Z,71.20
2017-11-09T19:19:33.308Z,71.00
2017-11-09T19:22:01.482Z,70.90
2017-11-09T19:24:29.665Z,70.70
2017-11-09T19:26:57.844Z,70.80
2017-11-09T19:29:26.118Z,70.90
2017-11-09T19:31:54.393Z,70.80
2017-11-09T19:34:22.657Z,70.70
2017-11-09T19:36:51.651Z,70.90
2017-11-09T19:39:19.835Z,70.80
2017-11-09T19:41:47.980Z,70.80
2017-11-09T19:44:16.267Z,70.80
2017-11-09T19:46:45.770Z,70.60
2017-11-09T19:49:14.149Z,70.50
2017-11-09T19:51:42.295Z,70.70
2017-11-09T19:54:10.565Z,71.00
2017-11-09T19:56:39.484Z,71.10
2017-11-09T19:59:07.693Z,71.10
2017-11-09T20:01:36.492Z,71.10
2017-11-09T20:04:04.650Z,71.20
2017-11-09T20:06:32.797Z,71.30
2017-11-09T20:09:00.981Z,71.40
2017-11-09T20:11:29.618Z,71.60
2017-11-09T20:13:57.789Z,71.50
2017-11-09T20:16:25.998Z,71.60
2017-11-09T20:18:54.157Z,71.60
2017-11-09T20:21:22.288Z,71.60
2017-11-09T20:23:50.435Z,71.50
2017-11-09T20:26:18.693Z,71.40
2017-11-09T20:28:48.247Z,71.50
2017-11-09T20:31:16.511Z,71.40
2017-11-09T20:33:45.209Z,71.40
2017-11-09T20:36:13.539Z,71.60
2017-11-09T20:38:42.046Z,71.50
2017-11-09T20:41:10.780Z,71.40
2017-11-09T20:43:40.755Z,71.50
2017-11-09T20:46:08.912Z,71.50
2017-11-09T20:48:37.175Z,71.80
2017-11-09T20:51:05.982Z,71.70
2017-11-09T20:53:37.099Z,71.60
2017-11-09T20:56:05.679Z,71.60
2017-11-09T20:58:35.807Z,71.50
2017-11-09T21:01:03.971Z,71.50
2017-11-09T21:03:32.143Z,71.60
2017-11-09T21:06:00.260Z,71.60
2017-11-09T21:08:28.407Z,71.80
2017-11-09T21:10:56.662Z,72.00
2017-11-09T21:13:24.946Z,72.10
2017-11-09T21:15:53.310Z,72.10
2017-11-09T21:18:21.586Z,72.00
2017-11-09T21:20:49.756Z,72.10
2017-11-09T21:23:19.013Z,72.10
2017-11-09T21:25:47.140Z,72.00
2017-11-09T21:28:15.318Z,72.10
2017-11-09T21:30:43.579Z,72.00
2017-11-09T21:33:11.930Z,72.00
2017-11-09T21:35:41.163Z,72.00
2017-11-09T21:38:09.433Z,72.00
2017-11-09T21:40:37.555Z,72.20
2017-11-09T21:43:05.777Z,72.20
2017-11-09T21:45:33.977Z,72.40
2017-11-09T21:48:02.428Z,72.40
2017-11-09T21:50:30.673Z,72.40
2017-11-09T21:52:59.560Z,72.30
2017-11-09T21:55:27.767Z,72.30
2017-11-09T21:57:55.919Z,72.40
2017-11-09T22:00:24.822Z,72.60
2017-11-09T22:02:53.511Z,72.60
2017-11-09T22:05:21.622Z,72.50
2017-11-09T22:07:49.960Z,72.50
2017-11-09T22:10:19.158Z,72.60
2017-11-09T22:12:47.332Z,72.70
2017-11-09T22:15:15.468Z,72.90
2017-11-09T22:17:44.363Z,72.80
2017-11-09T22:20:13.763Z,72.90
2017-11-09T22:22:41.969Z,72.90
2017-11-09T22:25:10.146Z,73.50
2017-11-09T22:27:38.493Z,73.00
2017-11-09T22:30:06.719Z,73.00
2017-11-09T22:32:34.877Z,73.00
2017-11-09T22:35:03.837Z,72.80
2017-11-09T22:37:32.759Z,72.90
2017-11-09T22:40:00.913Z,72.90
2017-11-09T22:42:29.094Z,72.90
2017-11-09T22:44:57.476Z,72.90
2017-11-09T22:47:25.977Z,72.90
2017-11-09T22:49:54.947Z,72.90
2017-11-09T22:52:23.084Z,72.60
2017-11-09T22:54:52.006Z,72.60
2017-11-09T22:57:20.173Z,72.60
2017-11-09T22:59:48.617Z,72.80
2017-11-09T23:02:17.658Z,72.50
2017-11-09T23:04:46.118Z,72.40
2017-11-09T23:07:14.288Z,72.60
2017-11-09T23:09:42.438Z,72.60
2017-11-09T23:12:11.680Z,72.60
2017-11-09T23:14:39.855Z,72.60
2017-11-09T23:17:08.842Z,72.80
2017-11-09T23:19:37.024Z,72.80
2017-11-09T23:22:05.525Z,72.60
2017-11-09T23:24:33.870Z,72.60
2017-11-09T23:27:02.026Z,72.40
2017-11-09T23:29:30.223Z,72.40
2017-11-09T23:32:02.385Z,72.30
2017-11-09T23:34:30.561Z,72.30
2017-11-09T23:36:58.884Z,72.40
2017-11-09T23:39:27.015Z,72.30
2017-11-09T23:41:55.153Z,72.30
2017-11-09T23:44:24.094Z,72.10
2017-11-09T23:46:52.221Z,72.10
2017-11-09T23:49:20.417Z,72.10
2017-11-09T23:51:48.537Z,72.10
2017-11-09T23:54:16.663Z,72.10
2017-11-09T23:56:44.833Z,71.90
2017-11-09T23:59:13.006Z,71.90
